sensor_id;sensor_type;location;lat;lon;timestamp;P1;durP1;ratioP1;P2;durP2;ratioP2
74808;SDS011;63338;39.544;2.596;2023-04-24T00:00:21;14.20;;;7.93;;
74808;SDS011;63338;39.544;2.596;2023-04-24T00:02:48;18.88;;;8.70;;
74808;SDS011;63338;39.544;2.596;2023-04-24T00:05:14;16.25;;;7.10;;
74808;SDS011;63338;39.544;2.596;2023-04-24T00:07:43;13.35;;;7.15;;
74808;SDS011;63338;39.544;2.596;2023-04-24T00:10:10;14.45;;;7.43;;
74808;SDS011;63338;39.544;2.596;2023-04-24T00:12:37;16.30;;;7.10;;
74808;SDS011;63338;39.544;2.596;2023-04-24T00:15:05;13.00;;;6.47;;
74808;SDS011;63338;39.544;2.596;2023-04-24T00:17:31;18.08;;;6.88;;
74808;SDS011;63338;39.544;2.596;2023-04-24T00:19:57;14.13;;;5.93;;
74808;SDS011;63338;39.544;2.596;2023-04-24T00:22:27;11.65;;;5.40;;
74808;SDS011;63338;39.544;2.596;2023-04-24T00:24:54;14.68;;;5.50;;
74808;SDS011;63338;39.544;2.596;2023-04-24T00:27:20;11.55;;;6.28;;
74808;SDS011;63338;39.544;2.596;2023-04-24T00:29:48;16.38;;;6.60;;
74808;SDS011;63338;39.544;2.596;2023-04-24T00:32:17;11.85;;;5.63;;
74808;SDS011;63338;39.544;2.596;2023-04-24T00:34:44;14.60;;;5.88;;
74808;SDS011;63338;39.544;2.596;2023-04-24T00:37:10;9.50;;;4.80;;
74808;SDS011;63338;39.544;2.596;2023-04-24T00:39:37;10.05;;;5.07;;
74808;SDS011;63338;39.544;2.596;2023-04-24T00:42:03;13.80;;;7.28;;
74808;SDS011;63338;39.544;2.596;2023-04-24T00:44:32;19.58;;;7.90;;
74808;SDS011;63338;39.544;2.596;2023-04-24T00:47:00;14.30;;;6.30;;
74808;SDS011;63338;39.544;2.596;2023-04-24T00:49:26;14.35;;;6.30;;
74808;SDS011;63338;39.544;2.596;2023-04-24T00:51:52;13.70;;;5.72;;
74808;SDS011;63338;39.544;2.596;2023-04-24T00:54:19;15.73;;;6.10;;
74808;SDS011;63338;39.544;2.596;2023-04-24T00:56:45;12.82;;;6.00;;
74808;SDS011;63338;39.544;2.596;2023-04-24T00:59:11;10.60;;;5.20;;
74808;SDS011;63338;39.544;2.596;2023-04-24T01:01:38;13.48;;;5.82;;
74808;SDS011;63338;39.544;2.596;2023-04-24T01:04:08;18.98;;;6.00;;
74808;SDS011;63338;39.544;2.596;2023-04-24T01:06:37;11.70;;;5.28;;
74808;SDS011;63338;39.544;2.596;2023-04-24T01:09:04;12.48;;;5.38;;
74808;SDS011;63338;39.544;2.596;2023-04-24T01:11:34;13.38;;;5.93;;
74808;SDS011;63338;39.544;2.596;2023-04-24T01:14:01;12.63;;;5.90;;
74808;SDS011;63338;39.544;2.596;2023-04-24T01:16:27;12.85;;;6.80;;
74808;SDS011;63338;39.544;2.596;2023-04-24T01:18:53;15.25;;;5.93;;
74808;SDS011;63338;39.544;2.596;2023-04-24T01:21:19;12.70;;;5.65;;
74808;SDS011;63338;39.544;2.596;2023-04-24T01:23:46;14.45;;;6.43;;
74808;SDS011;63338;39.544;2.596;2023-04-24T01:26:13;12.40;;;5.75;;
74808;SDS011;63338;39.544;2.596;2023-04-24T01:28:42;13.38;;;5.85;;
74808;SDS011;63338;39.544;2.596;2023-04-24T01:31:08;13.30;;;6.32;;
74808;SDS011;63338;39.544;2.596;2023-04-24T01:33:34;10.98;;;5.68;;
74808;SDS011;63338;39.544;2.596;2023-04-24T01:36:00;15.65;;;6.43;;
74808;SDS011;63338;39.544;2.596;2023-04-24T01:38:26;13.20;;;6.82;;
74808;SDS011;63338;39.544;2.596;2023-04-24T01:40:53;13.43;;;7.32;;
74808;SDS011;63338;39.544;2.596;2023-04-24T01:43:19;16.55;;;6.43;;
74808;SDS011;63338;39.544;2.596;2023-04-24T01:45:48;17.90;;;7.43;;
74808;SDS011;63338;39.544;2.596;2023-04-24T01:48:14;16.20;;;7.93;;
74808;SDS011;63338;39.544;2.596;2023-04-24T01:50:40;19.25;;;8.25;;
74808;SDS011;63338;39.544;2.596;2023-04-24T01:53:06;19.40;;;7.93;;
74808;SDS011;63338;39.544;2.596;2023-04-24T01:55:32;13.68;;;7.50;;
74808;SDS011;63338;39.544;2.596;2023-04-24T01:57:58;17.85;;;7.20;;
74808;SDS011;63338;39.544;2.596;2023-04-24T02:00:26;18.83;;;7.45;;
74808;SDS011;63338;39.544;2.596;2023-04-24T02:02:52;14.25;;;7.35;;
74808;SDS011;63338;39.544;2.596;2023-04-24T02:05:18;15.77;;;7.15;;
74808;SDS011;63338;39.544;2.596;2023-04-24T02:07:44;12.05;;;7.32;;
74808;SDS011;63338;39.544;2.596;2023-04-24T02:10:13;17.85;;;7.53;;
74808;SDS011;63338;39.544;2.596;2023-04-24T02:12:39;20.45;;;7.05;;
74808;SDS011;63338;39.544;2.596;2023-04-24T02:15:05;13.10;;;6.85;;
74808;SDS011;63338;39.544;2.596;2023-04-24T02:17:32;22.15;;;7.18;;
74808;SDS011;63338;39.544;2.596;2023-04-24T02:20:00;19.83;;;7.60;;
74808;SDS011;63338;39.544;2.596;2023-04-24T02:22:26;15.77;;;7.20;;
74808;SDS011;63338;39.544;2.596;2023-04-24T02:24:52;16.23;;;6.93;;
74808;SDS011;63338;39.544;2.596;2023-04-24T02:27:17;16.27;;;7.00;;
74808;SDS011;63338;39.544;2.596;2023-04-24T02:29:43;19.88;;;7.05;;
74808;SDS011;63338;39.544;2.596;2023-04-24T02:32:10;15.73;;;7.03;;
74808;SDS011;63338;39.544;2.596;2023-04-24T02:34:37;17.70;;;7.80;;
74808;SDS011;63338;39.544;2.596;2023-04-24T02:37:06;13.70;;;6.43;;
74808;SDS011;63338;39.544;2.596;2023-04-24T02:39:32;14.98;;;5.82;;
74808;SDS011;63338;39.544;2.596;2023-04-24T02:41:58;19.73;;;7.32;;
74808;SDS011;63338;39.544;2.596;2023-04-24T02:44:24;17.00;;;7.00;;
74808;SDS011;63338;39.544;2.596;2023-04-24T02:46:50;18.83;;;7.50;;
74808;SDS011;63338;39.544;2.596;2023-04-24T02:49:16;13.82;;;7.00;;
74808;SDS011;63338;39.544;2.596;2023-04-24T02:51:42;13.27;;;7.18;;
74808;SDS011;63338;39.544;2.596;2023-04-24T02:54:08;15.25;;;6.90;;
74808;SDS011;63338;39.544;2.596;2023-04-24T02:56:37;16.60;;;6.75;;
74808;SDS011;63338;39.544;2.596;2023-04-24T02:59:03;14.75;;;6.50;;
74808;SDS011;63338;39.544;2.596;2023-04-24T03:01:29;15.75;;;6.38;;
74808;SDS011;63338;39.544;2.596;2023-04-24T03:03:55;16.50;;;6.70;;
74808;SDS011;63338;39.544;2.596;2023-04-24T03:06:22;14.48;;;6.68;;
74808;SDS011;63338;39.544;2.596;2023-04-24T03:08:48;17.45;;;7.22;;
74808;SDS011;63338;39.544;2.596;2023-04-24T03:11:14;16.98;;;6.88;;
74808;SDS011;63338;39.544;2.596;2023-04-24T03:13:40;19.08;;;7.05;;
74808;SDS011;63338;39.544;2.596;2023-04-24T03:16:06;15.02;;;6.82;;
74808;SDS011;63338;39.544;2.596;2023-04-24T03:18:32;17.15;;;7.20;;
74808;SDS011;63338;39.544;2.596;2023-04-24T03:20:58;13.45;;;6.60;;
74808;SDS011;63338;39.544;2.596;2023-04-24T03:23:24;17.00;;;6.97;;
74808;SDS011;63338;39.544;2.596;2023-04-24T03:25:50;17.02;;;6.40;;
74808;SDS011;63338;39.544;2.596;2023-04-24T03:28:16;14.65;;;6.45;;
74808;SDS011;63338;39.544;2.596;2023-04-24T03:30:42;19.13;;;6.60;;
74808;SDS011;63338;39.544;2.596;2023-04-24T03:33:08;16.92;;;7.10;;
74808;SDS011;63338;39.544;2.596;2023-04-24T03:35:35;15.75;;;6.28;;
74808;SDS011;63338;39.544;2.596;2023-04-24T03:38:01;14.20;;;6.20;;
74808;SDS011;63338;39.544;2.596;2023-04-24T03:40:29;12.77;;;6.70;;
74808;SDS011;63338;39.544;2.596;2023-04-24T03:42:55;16.40;;;6.38;;
74808;SDS011;63338;39.544;2.596;2023-04-24T03:45:21;14.32;;;6.38;;
74808;SDS011;63338;39.544;2.596;2023-04-24T03:47:47;13.02;;;6.38;;
74808;SDS011;63338;39.544;2.596;2023-04-24T03:50:13;13.25;;;5.35;;
74808;SDS011;63338;39.544;2.596;2023-04-24T03:52:40;14.82;;;5.97;;
74808;SDS011;63338;39.544;2.596;2023-04-24T03:55:06;17.15;;;7.25;;
74808;SDS011;63338;39.544;2.596;2023-04-24T03:57:32;15.43;;;5.82;;
74808;SDS011;63338;39.544;2.596;2023-04-24T03:59:58;13.80;;;6.53;;
74808;SDS011;63338;39.544;2.596;2023-04-24T04:02:25;10.70;;;5.35;;
74808;SDS011;63338;39.544;2.596;2023-04-24T04:04:51;13.23;;;5.70;;
74808;SDS011;63338;39.544;2.596;2023-04-24T04:07:18;11.95;;;5.63;;
74808;SDS011;63338;39.544;2.596;2023-04-24T04:09:44;18.63;;;5.47;;
74808;SDS011;63338;39.544;2.596;2023-04-24T04:12:10;11.10;;;5.60;;
74808;SDS011;63338;39.544;2.596;2023-04-24T04:14:37;16.55;;;5.85;;
74808;SDS011;63338;39.544;2.596;2023-04-24T04:17:03;12.63;;;6.20;;
74808;SDS011;63338;39.544;2.596;2023-04-24T04:19:29;13.63;;;5.22;;
74808;SDS011;63338;39.544;2.596;2023-04-24T04:21:56;12.73;;;5.57;;
74808;SDS011;63338;39.544;2.596;2023-04-24T04:24:22;13.35;;;5.13;;
74808;SDS011;63338;39.544;2.596;2023-04-24T04:26:49;10.93;;;5.68;;
74808;SDS011;63338;39.544;2.596;2023-04-24T04:29:16;16.17;;;6.60;;
74808;SDS011;63338;39.544;2.596;2023-04-24T04:31:47;12.55;;;4.93;;
74808;SDS011;63338;39.544;2.596;2023-04-24T04:34:13;15.35;;;5.68;;
74808;SDS011;63338;39.544;2.596;2023-04-24T04:36:40;13.00;;;5.90;;
74808;SDS011;63338;39.544;2.596;2023-04-24T04:39:06;10.32;;;5.40;;
74808;SDS011;63338;39.544;2.596;2023-04-24T04:41:32;9.80;;;4.40;;
74808;SDS011;63338;39.544;2.596;2023-04-24T04:44:00;13.55;;;5.60;;
74808;SDS011;63338;39.544;2.596;2023-04-24T04:46:27;15.88;;;5.45;;
74808;SDS011;63338;39.544;2.596;2023-04-24T04:48:53;14.48;;;5.45;;
74808;SDS011;63338;39.544;2.596;2023-04-24T04:51:19;10.88;;;5.30;;
74808;SDS011;63338;39.544;2.596;2023-04-24T04:53:46;10.63;;;5.30;;
74808;SDS011;63338;39.544;2.596;2023-04-24T04:56:12;12.35;;;5.57;;
74808;SDS011;63338;39.544;2.596;2023-04-24T04:58:40;10.90;;;5.00;;
74808;SDS011;63338;39.544;2.596;2023-04-24T05:01:06;12.27;;;5.60;;
74808;SDS011;63338;39.544;2.596;2023-04-24T05:03:36;16.58;;;6.13;;
74808;SDS011;63338;39.544;2.596;2023-04-24T05:06:02;15.27;;;5.38;;
74808;SDS011;63338;39.544;2.596;2023-04-24T05:08:28;13.80;;;5.70;;
74808;SDS011;63338;39.544;2.596;2023-04-24T05:10:54;12.95;;;6.25;;
74808;SDS011;63338;39.544;2.596;2023-04-24T05:13:20;11.57;;;6.07;;
74808;SDS011;63338;39.544;2.596;2023-04-24T05:15:46;13.18;;;5.97;;
74808;SDS011;63338;39.544;2.596;2023-04-24T05:18:12;15.73;;;5.60;;
74808;SDS011;63338;39.544;2.596;2023-04-24T05:20:38;12.55;;;6.03;;
74808;SDS011;63338;39.544;2.596;2023-04-24T05:23:04;14.90;;;5.90;;
74808;SDS011;63338;39.544;2.596;2023-04-24T05:25:30;12.60;;;5.35;;
74808;SDS011;63338;39.544;2.596;2023-04-24T05:28:00;11.90;;;6.32;;
74808;SDS011;63338;39.544;2.596;2023-04-24T05:30:27;12.10;;;5.25;;
74808;SDS011;63338;39.544;2.596;2023-04-24T05:32:53;13.35;;;5.75;;
74808;SDS011;63338;39.544;2.596;2023-04-24T05:35:19;12.82;;;5.95;;
74808;SDS011;63338;39.544;2.596;2023-04-24T05:37:45;10.77;;;5.65;;
74808;SDS011;63338;39.544;2.596;2023-04-24T05:40:11;12.40;;;6.40;;
74808;SDS011;63338;39.544;2.596;2023-04-24T05:42:37;13.10;;;5.85;;
74808;SDS011;63338;39.544;2.596;2023-04-24T05:45:03;17.23;;;6.57;;
74808;SDS011;63338;39.544;2.596;2023-04-24T05:47:30;13.02;;;6.50;;
74808;SDS011;63338;39.544;2.596;2023-04-24T05:49:56;18.15;;;7.88;;
74808;SDS011;63338;39.544;2.596;2023-04-24T05:52:22;16.08;;;7.03;;
74808;SDS011;63338;39.544;2.596;2023-04-24T05:54:48;14.18;;;5.90;;
74808;SDS011;63338;39.544;2.596;2023-04-24T05:57:14;11.77;;;5.82;;
74808;SDS011;63338;39.544;2.596;2023-04-24T05:59:40;10.65;;;5.60;;
74808;SDS011;63338;39.544;2.596;2023-04-24T06:02:06;12.48;;;5.50;;
74808;SDS011;63338;39.544;2.596;2023-04-24T06:04:33;13.25;;;6.72;;
74808;SDS011;63338;39.544;2.596;2023-04-24T06:06:59;14.43;;;6.63;;
74808;SDS011;63338;39.544;2.596;2023-04-24T06:09:25;12.23;;;6.20;;
74808;SDS011;63338;39.544;2.596;2023-04-24T06:11:51;18.88;;;6.10;;
74808;SDS011;63338;39.544;2.596;2023-04-24T06:14:18;14.07;;;6.30;;
74808;SDS011;63338;39.544;2.596;2023-04-24T06:16:45;16.88;;;7.18;;
74808;SDS011;63338;39.544;2.596;2023-04-24T06:19:11;13.77;;;6.75;;
74808;SDS011;63338;39.544;2.596;2023-04-24T06:21:36;19.42;;;7.45;;
74808;SDS011;63338;39.544;2.596;2023-04-24T06:24:02;19.83;;;7.32;;
74808;SDS011;63338;39.544;2.596;2023-04-24T06:26:30;17.17;;;7.07;;
74808;SDS011;63338;39.544;2.596;2023-04-24T06:28:56;15.82;;;7.35;;
74808;SDS011;63338;39.544;2.596;2023-04-24T06:31:24;17.55;;;8.27;;
74808;SDS011;63338;39.544;2.596;2023-04-24T06:33:50;16.23;;;7.70;;
74808;SDS011;63338;39.544;2.596;2023-04-24T06:36:16;17.45;;;8.18;;
74808;SDS011;63338;39.544;2.596;2023-04-24T06:38:42;19.50;;;10.10;;
74808;SDS011;63338;39.544;2.596;2023-04-24T06:41:09;24.90;;;10.90;;
74808;SDS011;63338;39.544;2.596;2023-04-24T06:43:35;16.35;;;9.00;;
74808;SDS011;63338;39.544;2.596;2023-04-24T06:46:01;16.73;;;8.93;;
74808;SDS011;63338;39.544;2.596;2023-04-24T06:48:28;16.73;;;8.45;;
74808;SDS011;63338;39.544;2.596;2023-04-24T06:50:54;16.50;;;10.10;;
74808;SDS011;63338;39.544;2.596;2023-04-24T06:53:21;19.15;;;8.30;;
74808;SDS011;63338;39.544;2.596;2023-04-24T06:55:47;18.90;;;9.70;;
74808;SDS011;63338;39.544;2.596;2023-04-24T06:58:13;17.17;;;8.80;;
74808;SDS011;63338;39.544;2.596;2023-04-24T07:00:40;18.58;;;9.15;;
74808;SDS011;63338;39.544;2.596;2023-04-24T07:03:06;15.60;;;9.13;;
74808;SDS011;63338;39.544;2.596;2023-04-24T07:05:32;21.10;;;8.02;;
74808;SDS011;63338;39.544;2.596;2023-04-24T07:08:01;16.27;;;8.50;;
74808;SDS011;63338;39.544;2.596;2023-04-24T07:10:28;18.10;;;8.30;;
74808;SDS011;63338;39.544;2.596;2023-04-24T07:12:54;17.70;;;8.48;;
74808;SDS011;63338;39.544;2.596;2023-04-24T07:15:24;13.70;;;7.57;;
74808;SDS011;63338;39.544;2.596;2023-04-24T07:17:51;14.13;;;7.85;;
74808;SDS011;63338;39.544;2.596;2023-04-24T07:20:17;10.75;;;6.97;;
74808;SDS011;63338;39.544;2.596;2023-04-24T07:22:43;17.10;;;7.72;;
74808;SDS011;63338;39.544;2.596;2023-04-24T07:25:09;21.83;;;8.80;;
74808;SDS011;63338;39.544;2.596;2023-04-24T07:27:35;15.52;;;8.77;;
74808;SDS011;63338;39.544;2.596;2023-04-24T07:30:02;11.20;;;7.38;;
74808;SDS011;63338;39.544;2.596;2023-04-24T07:32:29;14.80;;;7.57;;
74808;SDS011;63338;39.544;2.596;2023-04-24T07:34:55;16.60;;;8.35;;
74808;SDS011;63338;39.544;2.596;2023-04-24T07:37:22;12.88;;;7.55;;
74808;SDS011;63338;39.544;2.596;2023-04-24T07:39:49;15.43;;;7.80;;
74808;SDS011;63338;39.544;2.596;2023-04-24T07:42:15;13.10;;;7.60;;
74808;SDS011;63338;39.544;2.596;2023-04-24T07:44:41;12.85;;;6.65;;
74808;SDS011;63338;39.544;2.596;2023-04-24T07:47:07;15.07;;;6.30;;
74808;SDS011;63338;39.544;2.596;2023-04-24T07:49:36;10.38;;;5.53;;
74808;SDS011;63338;39.544;2.596;2023-04-24T07:52:02;8.80;;;5.20;;
74808;SDS011;63338;39.544;2.596;2023-04-24T07:54:28;12.50;;;5.32;;
74808;SDS011;63338;39.544;2.596;2023-04-24T07:56:54;11.05;;;5.47;;
74808;SDS011;63338;39.544;2.596;2023-04-24T07:59:20;11.38;;;5.00;;
74808;SDS011;63338;39.544;2.596;2023-04-24T08:01:46;9.43;;;4.85;;
74808;SDS011;63338;39.544;2.596;2023-04-24T08:04:12;10.25;;;5.45;;
74808;SDS011;63338;39.544;2.596;2023-04-24T08:06:38;10.23;;;5.05;;
74808;SDS011;63338;39.544;2.596;2023-04-24T08:09:05;9.10;;;4.53;;
74808;SDS011;63338;39.544;2.596;2023-04-24T08:11:31;11.93;;;4.65;;
74808;SDS011;63338;39.544;2.596;2023-04-24T08:13:57;11.50;;;4.78;;
74808;SDS011;63338;39.544;2.596;2023-04-24T08:16:24;9.50;;;4.43;;
74808;SDS011;63338;39.544;2.596;2023-04-24T08:18:50;9.70;;;3.70;;
74808;SDS011;63338;39.544;2.596;2023-04-24T08:21:17;13.30;;;4.55;;
74808;SDS011;63338;39.544;2.596;2023-04-24T08:23:44;11.10;;;4.68;;
74808;SDS011;63338;39.544;2.596;2023-04-24T08:26:11;10.38;;;4.60;;
74808;SDS011;63338;39.544;2.596;2023-04-24T08:28:38;11.90;;;4.65;;
74808;SDS011;63338;39.544;2.596;2023-04-24T08:31:04;18.17;;;5.38;;
74808;SDS011;63338;39.544;2.596;2023-04-24T08:33:30;9.85;;;4.20;;
74808;SDS011;63338;39.544;2.596;2023-04-24T08:36:03;12.13;;;4.47;;
74808;SDS011;63338;39.544;2.596;2023-04-24T08:38:30;10.05;;;3.70;;
74808;SDS011;63338;39.544;2.596;2023-04-24T08:40:58;11.07;;;4.07;;
74808;SDS011;63338;39.544;2.596;2023-04-24T08:43:25;11.52;;;4.13;;
74808;SDS011;63338;39.544;2.596;2023-04-24T08:45:52;12.63;;;3.53;;
74808;SDS011;63338;39.544;2.596;2023-04-24T08:48:21;7.57;;;2.63;;
74808;SDS011;63338;39.544;2.596;2023-04-24T08:50:48;10.50;;;4.20;;
74808;SDS011;63338;39.544;2.596;2023-04-24T08:53:16;13.15;;;4.15;;
74808;SDS011;63338;39.544;2.596;2023-04-24T08:55:43;9.77;;;3.88;;
74808;SDS011;63338;39.544;2.596;2023-04-24T08:58:12;10.88;;;3.42;;
74808;SDS011;63338;39.544;2.596;2023-04-24T09:00:40;10.82;;;3.15;;
74808;SDS011;63338;39.544;2.596;2023-04-24T09:03:13;12.52;;;2.92;;
74808;SDS011;63338;39.544;2.596;2023-04-24T09:05:41;13.20;;;3.63;;
74808;SDS011;63338;39.544;2.596;2023-04-24T09:08:11;9.30;;;3.47;;
74808;SDS011;63338;39.544;2.596;2023-04-24T09:10:39;8.60;;;2.83;;
74808;SDS011;63338;39.544;2.596;2023-04-24T09:13:05;10.35;;;2.72;;
74808;SDS011;63338;39.544;2.596;2023-04-24T09:15:34;12.85;;;3.33;;
74808;SDS011;63338;39.544;2.596;2023-04-24T09:18:00;10.50;;;3.28;;
74808;SDS011;63338;39.544;2.596;2023-04-24T09:20:27;10.68;;;3.40;;
74808;SDS011;63338;39.544;2.596;2023-04-24T09:22:53;12.50;;;3.90;;
74808;SDS011;63338;39.544;2.596;2023-04-24T09:25:24;10.95;;;3.13;;
74808;SDS011;63338;39.544;2.596;2023-04-24T09:28:02;13.43;;;3.05;;
74808;SDS011;63338;39.544;2.596;2023-04-24T09:30:29;7.30;;;3.28;;
74808;SDS011;63338;39.544;2.596;2023-04-24T09:33:12;11.45;;;3.40;;
74808;SDS011;63338;39.544;2.596;2023-04-24T09:35:43;11.35;;;3.63;;
74808;SDS011;63338;39.544;2.596;2023-04-24T09:38:15;9.30;;;2.63;;
74808;SDS011;63338;39.544;2.596;2023-04-24T09:40:41;7.78;;;2.67;;
74808;SDS011;63338;39.544;2.596;2023-04-24T09:43:10;8.45;;;2.97;;
74808;SDS011;63338;39.544;2.596;2023-04-24T09:45:36;14.00;;;3.15;;
74808;SDS011;63338;39.544;2.596;2023-04-24T09:48:04;10.57;;;2.83;;
74808;SDS011;63338;39.544;2.596;2023-04-24T09:50:34;10.85;;;3.05;;
74808;SDS011;63338;39.544;2.596;2023-04-24T09:53:02;7.65;;;2.40;;
74808;SDS011;63338;39.544;2.596;2023-04-24T09:55:29;7.20;;;2.60;;
74808;SDS011;63338;39.544;2.596;2023-04-24T09:58:00;11.02;;;3.00;;
74808;SDS011;63338;39.544;2.596;2023-04-24T10:02:55;9.48;;;2.90;;
74808;SDS011;63338;39.544;2.596;2023-04-24T10:05:32;8.85;;;2.53;;
74808;SDS011;63338;39.544;2.596;2023-04-24T10:08:00;10.85;;;2.83;;
74808;SDS011;63338;39.544;2.596;2023-04-24T10:10:27;7.85;;;2.38;;
74808;SDS011;63338;39.544;2.596;2023-04-24T10:12:54;10.05;;;2.60;;
74808;SDS011;63338;39.544;2.596;2023-04-24T10:15:21;9.95;;;2.45;;
74808;SDS011;63338;39.544;2.596;2023-04-24T10:17:48;11.13;;;3.08;;
74808;SDS011;63338;39.544;2.596;2023-04-24T10:20:18;12.93;;;2.63;;
74808;SDS011;63338;39.544;2.596;2023-04-24T10:22:50;15.02;;;2.45;;
74808;SDS011;63338;39.544;2.596;2023-04-24T10:25:22;9.40;;;2.63;;
74808;SDS011;63338;39.544;2.596;2023-04-24T10:27:50;10.40;;;2.80;;
74808;SDS011;63338;39.544;2.596;2023-04-24T10:30:18;8.50;;;2.80;;
74808;SDS011;63338;39.544;2.596;2023-04-24T10:32:45;11.13;;;3.42;;
74808;SDS011;63338;39.544;2.596;2023-04-24T10:35:12;8.00;;;2.63;;
74808;SDS011;63338;39.544;2.596;2023-04-24T10:37:46;9.93;;;2.58;;
74808;SDS011;63338;39.544;2.596;2023-04-24T10:40:30;6.43;;;2.65;;
74808;SDS011;63338;39.544;2.596;2023-04-24T10:42:58;7.50;;;2.38;;
74808;SDS011;63338;39.544;2.596;2023-04-24T10:45:25;11.52;;;2.70;;
74808;SDS011;63338;39.544;2.596;2023-04-24T10:48:01;9.82;;;2.97;;
74808;SDS011;63338;39.544;2.596;2023-04-24T10:50:51;10.20;;;3.47;;
74808;SDS011;63338;39.544;2.596;2023-04-24T10:53:18;6.38;;;1.83;;
74808;SDS011;63338;39.544;2.596;2023-04-24T10:58:11;8.80;;;2.47;;
74808;SDS011;63338;39.544;2.596;2023-04-24T11:00:38;8.10;;;2.38;;
74808;SDS011;63338;39.544;2.596;2023-04-24T11:03:06;8.82;;;2.38;;
74808;SDS011;63338;39.544;2.596;2023-04-24T11:08:27;9.38;;;2.30;;
74808;SDS011;63338;39.544;2.596;2023-04-24T11:10:57;7.78;;;2.50;;
74808;SDS011;63338;39.544;2.596;2023-04-24T11:13:27;8.45;;;2.05;;
74808;SDS011;63338;39.544;2.596;2023-04-24T11:16:14;7.90;;;2.28;;
74808;SDS011;63338;39.544;2.596;2023-04-24T11:18:50;6.53;;;2.10;;
74808;SDS011;63338;39.544;2.596;2023-04-24T11:21:27;10.30;;;2.80;;
74808;SDS011;63338;39.544;2.596;2023-04-24T11:27:06;8.07;;;2.47;;
74808;SDS011;63338;39.544;2.596;2023-04-24T11:29:44;9.10;;;2.30;;
74808;SDS011;63338;39.544;2.596;2023-04-24T11:32:16;7.80;;;2.70;;
74808;SDS011;63338;39.544;2.596;2023-04-24T11:35:07;8.70;;;2.22;;
74808;SDS011;63338;39.544;2.596;2023-04-24T11:37:35;7.55;;;1.90;;
74808;SDS011;63338;39.544;2.596;2023-04-24T11:40:03;8.45;;;2.60;;
74808;SDS011;63338;39.544;2.596;2023-04-24T11:42:38;8.90;;;2.10;;
74808;SDS011;63338;39.544;2.596;2023-04-24T11:45:14;8.55;;;2.85;;
74808;SDS011;63338;39.544;2.596;2023-04-24T11:47:42;5.47;;;2.40;;
74808;SDS011;63338;39.544;2.596;2023-04-24T11:50:10;8.60;;;1.80;;
74808;SDS011;63338;39.544;2.596;2023-04-24T11:52:41;8.73;;;1.75;;
74808;SDS011;63338;39.544;2.596;2023-04-24T11:57:48;7.38;;;2.00;;
74808;SDS011;63338;39.544;2.596;2023-04-24T12:00:15;7.13;;;2.10;;
74808;SDS011;63338;39.544;2.596;2023-04-24T12:03:03;11.38;;;1.90;;
74808;SDS011;63338;39.544;2.596;2023-04-24T12:05:30;9.43;;;1.83;;
74808;SDS011;63338;39.544;2.596;2023-04-24T12:07:56;8.38;;;1.98;;
74808;SDS011;63338;39.544;2.596;2023-04-24T12:10:23;7.10;;;1.48;;
74808;SDS011;63338;39.544;2.596;2023-04-24T12:12:50;8.77;;;1.73;;
74808;SDS011;63338;39.544;2.596;2023-04-24T12:15:18;7.28;;;2.28;;
74808;SDS011;63338;39.544;2.596;2023-04-24T12:17:45;7.05;;;2.25;;
74808;SDS011;63338;39.544;2.596;2023-04-24T12:20:11;6.18;;;2.05;;
74808;SDS011;63338;39.544;2.596;2023-04-24T12:25:19;8.32;;;2.28;;
74808;SDS011;63338;39.544;2.596;2023-04-24T12:27:52;7.22;;;1.80;;
74808;SDS011;63338;39.544;2.596;2023-04-24T12:30:40;8.18;;;2.33;;
74808;SDS011;63338;39.544;2.596;2023-04-24T12:33:10;7.53;;;2.20;;
74808;SDS011;63338;39.544;2.596;2023-04-24T12:35:36;5.93;;;2.22;;
74808;SDS011;63338;39.544;2.596;2023-04-24T12:38:09;6.95;;;2.03;;
74808;SDS011;63338;39.544;2.596;2023-04-24T12:40:37;5.25;;;2.13;;
74808;SDS011;63338;39.544;2.596;2023-04-24T12:43:13;7.35;;;3.05;;
74808;SDS011;63338;39.544;2.596;2023-04-24T12:45:40;8.00;;;2.33;;
74808;SDS011;63338;39.544;2.596;2023-04-24T12:48:06;11.63;;;2.67;;
74808;SDS011;63338;39.544;2.596;2023-04-24T12:50:32;10.13;;;2.47;;
74808;SDS011;63338;39.544;2.596;2023-04-24T12:52:59;7.80;;;2.53;;
74808;SDS011;63338;39.544;2.596;2023-04-24T12:55:25;8.35;;;2.40;;
74808;SDS011;63338;39.544;2.596;2023-04-24T12:57:51;8.60;;;2.38;;
74808;SDS011;63338;39.544;2.596;2023-04-24T13:00:20;5.32;;;2.70;;
74808;SDS011;63338;39.544;2.596;2023-04-24T13:02:46;8.98;;;2.50;;
74808;SDS011;63338;39.544;2.596;2023-04-24T13:05:12;13.05;;;2.42;;
74808;SDS011;63338;39.544;2.596;2023-04-24T13:07:39;7.80;;;2.45;;
74808;SDS011;63338;39.544;2.596;2023-04-24T13:10:05;6.38;;;1.75;;
74808;SDS011;63338;39.544;2.596;2023-04-24T13:12:32;5.95;;;2.15;;
74808;SDS011;63338;39.544;2.596;2023-04-24T13:14:58;10.15;;;2.38;;
74808;SDS011;63338;39.544;2.596;2023-04-24T13:17:24;6.75;;;2.25;;
74808;SDS011;63338;39.544;2.596;2023-04-24T13:19:53;5.13;;;2.30;;
74808;SDS011;63338;39.544;2.596;2023-04-24T13:22:20;9.02;;;2.00;;
74808;SDS011;63338;39.544;2.596;2023-04-24T13:24:46;5.97;;;1.85;;
74808;SDS011;63338;39.544;2.596;2023-04-24T13:27:16;7.00;;;2.08;;
74808;SDS011;63338;39.544;2.596;2023-04-24T13:29:43;9.75;;;2.30;;
74808;SDS011;63338;39.544;2.596;2023-04-24T13:32:09;4.90;;;1.73;;
74808;SDS011;63338;39.544;2.596;2023-04-24T13:34:35;3.78;;;1.83;;
74808;SDS011;63338;39.544;2.596;2023-04-24T13:37:01;6.25;;;2.25;;
74808;SDS011;63338;39.544;2.596;2023-04-24T13:39:28;5.55;;;1.80;;
74808;SDS011;63338;39.544;2.596;2023-04-24T13:41:55;5.63;;;1.70;;
74808;SDS011;63338;39.544;2.596;2023-04-24T13:44:22;4.93;;;1.77;;
74808;SDS011;63338;39.544;2.596;2023-04-24T13:46:50;5.03;;;1.65;;
74808;SDS011;63338;39.544;2.596;2023-04-24T13:49:19;5.68;;;1.60;;
74808;SDS011;63338;39.544;2.596;2023-04-24T13:51:46;3.30;;;1.50;;
74808;SDS011;63338;39.544;2.596;2023-04-24T13:54:13;3.65;;;1.40;;
74808;SDS011;63338;39.544;2.596;2023-04-24T13:56:42;6.07;;;1.45;;
74808;SDS011;63338;39.544;2.596;2023-04-24T13:59:08;8.50;;;1.52;;
74808;SDS011;63338;39.544;2.596;2023-04-24T14:01:34;7.40;;;1.58;;
74808;SDS011;63338;39.544;2.596;2023-04-24T14:04:02;5.75;;;1.63;;
74808;SDS011;63338;39.544;2.596;2023-04-24T14:06:28;3.45;;;1.35;;
74808;SDS011;63338;39.544;2.596;2023-04-24T14:08:54;6.60;;;1.63;;
74808;SDS011;63338;39.544;2.596;2023-04-24T14:11:20;4.18;;;1.30;;
74808;SDS011;63338;39.544;2.596;2023-04-24T14:13:46;6.07;;;1.65;;
74808;SDS011;63338;39.544;2.596;2023-04-24T14:16:12;6.22;;;1.38;;
74808;SDS011;63338;39.544;2.596;2023-04-24T14:18:39;3.45;;;1.45;;
74808;SDS011;63338;39.544;2.596;2023-04-24T14:21:06;5.68;;;1.42;;
74808;SDS011;63338;39.544;2.596;2023-04-24T14:23:32;4.07;;;1.23;;
74808;SDS011;63338;39.544;2.596;2023-04-24T14:25:58;5.65;;;1.50;;
74808;SDS011;63338;39.544;2.596;2023-04-24T14:28:25;8.48;;;1.45;;
74808;SDS011;63338;39.544;2.596;2023-04-24T14:30:51;7.40;;;1.60;;
74808;SDS011;63338;39.544;2.596;2023-04-24T14:33:18;8.52;;;1.67;;
74808;SDS011;63338;39.544;2.596;2023-04-24T14:35:44;5.35;;;1.50;;
74808;SDS011;63338;39.544;2.596;2023-04-24T14:38:10;5.13;;;1.58;;
74808;SDS011;63338;39.544;2.596;2023-04-24T14:40:36;4.43;;;1.50;;
74808;SDS011;63338;39.544;2.596;2023-04-24T14:43:03;7.18;;;1.63;;
74808;SDS011;63338;39.544;2.596;2023-04-24T14:45:29;6.63;;;1.80;;
74808;SDS011;63338;39.544;2.596;2023-04-24T14:47:55;12.07;;;2.00;;
74808;SDS011;63338;39.544;2.596;2023-04-24T14:50:21;7.35;;;1.90;;
74808;SDS011;63338;39.544;2.596;2023-04-24T14:52:48;5.55;;;1.50;;
74808;SDS011;63338;39.544;2.596;2023-04-24T14:55:14;16.77;;;2.53;;